createdAt,value
2023-02-11T00:00:39.882Z,-2.97
2023-02-11T00:03:42.428Z,-3.18
2023-02-11T00:06:45.010Z,-3.14
2023-02-11T00:09:47.595Z,-3.10
2023-02-11T00:12:50.116Z,-3.13
2023-02-11T00:15:53.633Z,-3.18
2023-02-11T00:18:56.152Z,-3.17
2023-02-11T00:21:58.849Z,-3.14
2023-02-11T00:25:01.532Z,-3.27
2023-02-11T00:28:04.342Z,-3.18
2023-02-11T00:31:07.107Z,-3.37
2023-02-11T00:34:10.526Z,-3.25
2023-02-11T00:37:14.237Z,-3.25
2023-02-11T00:40:17.777Z,-3.15
2023-02-11T00:43:20.551Z,-3.15
2023-02-11T00:46:23.778Z,-3.28
2023-02-11T00:49:26.318Z,-3.34
2023-02-11T00:52:30.078Z,-3.35
2023-02-11T00:55:32.594Z,-3.28
2023-02-11T00:58:35.647Z,-3.26
2023-02-11T01:01:38.557Z,-3.38
2023-02-11T01:04:41.203Z,-3.48
2023-02-11T01:07:43.710Z,-3.38
2023-02-11T01:11:03.782Z,-3.39
2023-02-11T01:14:06.218Z,-3.33
2023-02-11T01:17:08.757Z,-3.35
2023-02-11T01:20:17.059Z,-3.55
2023-02-11T01:23:19.591Z,-3.49
2023-02-11T01:26:22.036Z,-3.65
2023-02-11T01:29:26.062Z,-3.62
2023-02-11T01:32:31.280Z,-3.66
2023-02-11T01:35:33.682Z,-3.63
2023-02-11T01:38:36.449Z,-3.71
2023-02-11T01:41:39.176Z,-3.73
2023-02-11T01:44:42.032Z,-3.79
2023-02-11T01:47:44.718Z,-3.65
2023-02-11T01:50:50.847Z,-3.64
2023-02-11T01:54:14.100Z,-3.80
2023-02-11T01:57:23.417Z,-3.74
2023-02-11T02:00:38.879Z,-3.74
2023-02-11T02:03:45.520Z,-3.68
2023-02-11T02:06:56.190Z,-3.60
2023-02-11T02:10:04.705Z,-3.83
2023-02-11T02:13:07.319Z,-3.90
2023-02-11T02:16:19.734Z,-4.02
2023-02-11T02:19:40.758Z,-3.87
2023-02-11T02:23:01.709Z,-3.90
2023-02-11T02:26:04.069Z,-3.91
2023-02-11T02:29:34.861Z,-4.00
2023-02-11T02:32:49.489Z,-4.14
2023-02-11T02:36:01.131Z,-4.06
2023-02-11T02:39:09.529Z,-4.19
2023-02-11T02:42:13.104Z,-4.14
2023-02-11T02:45:16.583Z,-4.11
2023-02-11T02:48:28.342Z,-4.13
2023-02-11T02:51:45.954Z,-4.06
2023-02-11T02:55:20.678Z,-4.11
2023-02-11T02:58:32.240Z,-4.16
2023-02-11T03:01:50.246Z,-4.16
2023-02-11T03:05:04.692Z,-4.22
2023-02-11T03:08:13.509Z,-4.19
2023-02-11T03:11:19.180Z,-4.16
2023-02-11T03:14:23.638Z,-4.25
2023-02-11T03:17:28.651Z,-4.40
2023-02-11T03:20:36.630Z,-4.25
2023-02-11T03:24:01.067Z,-4.23
2023-02-11T03:27:29.184Z,-4.33
2023-02-11T03:31:03.434Z,-4.51
2023-02-11T03:34:14.516Z,-4.42
2023-02-11T03:37:37.099Z,-4.39
2023-02-11T03:40:42.429Z,-4.36
2023-02-11T03:43:48.576Z,-4.45
2023-02-11T03:46:54.058Z,-4.33
2023-02-11T03:49:59.453Z,-4.42
2023-02-11T03:53:03.599Z,-4.37
2023-02-11T03:56:11.575Z,-4.44
2023-02-11T03:59:13.957Z,-4.57
2023-02-11T04:02:16.853Z,-4.62
2023-02-11T04:05:19.491Z,-4.54
2023-02-11T04:08:22.175Z,-4.61
2023-02-11T04:11:24.718Z,-4.58
2023-02-11T04:14:27.143Z,-4.61
2023-02-11T04:17:29.566Z,-4.75
2023-02-11T04:20:32.101Z,-4.67
2023-02-11T04:23:34.552Z,-4.65
2023-02-11T04:26:37.027Z,-4.75
2023-02-11T04:29:39.527Z,-4.70
2023-02-11T04:32:41.956Z,-4.69
2023-02-11T04:35:44.409Z,-4.85
2023-02-11T04:38:46.855Z,-4.94
2023-02-11T04:41:49.627Z,-4.69
2023-02-11T04:44:52.300Z,-4.80
2023-02-11T04:47:54.712Z,-4.77
2023-02-11T04:50:57.435Z,-4.84
2023-02-11T04:53:59.932Z,-4.79
2023-02-11T04:57:02.701Z,-4.81
2023-02-11T05:00:06.028Z,-4.78
2023-02-11T05:03:08.466Z,-4.77
2023-02-11T05:06:11.527Z,-4.91
2023-02-11T05:09:14.664Z,-4.81
2023-02-11T05:12:18.272Z,-4.84
2023-02-11T05:15:20.693Z,-4.88
2023-02-11T05:18:24.124Z,-4.77
2023-02-11T05:21:26.660Z,-4.90
2023-02-11T05:24:29.127Z,-4.95
2023-02-11T05:27:31.563Z,-4.85
2023-02-11T05:30:34.424Z,-4.90
2023-02-11T05:33:36.884Z,-4.95
2023-02-11T05:36:39.315Z,-4.93
2023-02-11T05:39:41.852Z,-4.87
2023-02-11T05:42:44.294Z,-4.74
2023-02-11T05:45:46.730Z,-4.84
2023-02-11T05:48:49.125Z,-4.80
2023-02-11T05:51:51.576Z,-4.83
2023-02-11T05:54:54.009Z,-4.89
2023-02-11T05:57:56.524Z,-4.95
2023-02-11T06:00:59.068Z,-4.97
2023-02-11T06:04:01.557Z,-4.93
2023-02-11T06:07:04.402Z,-4.83
2023-02-11T06:10:07.610Z,-4.70
2023-02-11T06:13:10.264Z,-4.60
2023-02-11T06:16:12.710Z,-4.49
2023-02-11T06:19:15.104Z,-4.44
2023-02-11T06:22:17.759Z,-4.38
2023-02-11T06:25:20.319Z,-4.39
2023-02-11T06:28:22.906Z,-4.28
2023-02-11T06:31:26.159Z,-4.31
2023-02-11T06:34:28.723Z,-4.16
2023-02-11T06:37:31.442Z,-4.04
2023-02-11T06:40:33.986Z,-3.87
2023-02-11T06:43:36.447Z,-3.69
2023-02-11T06:46:39.016Z,-3.59
2023-02-11T06:49:41.863Z,-3.53
2023-02-11T06:52:44.946Z,-3.42
2023-02-11T06:55:47.495Z,-3.27
2023-02-11T06:58:55.673Z,-3.24
2023-02-11T07:02:00.359Z,-3.11
2023-02-11T07:05:06.882Z,-3.07
2023-02-11T07:08:10.115Z,-3.00
2023-02-11T07:11:24.339Z,-2.72
2023-02-11T07:14:27.196Z,-2.64
2023-02-11T07:17:29.686Z,-2.37
2023-02-11T07:20:32.210Z,-2.08
2023-02-11T07:23:35.614Z,-1.63
2023-02-11T07:26:38.552Z,-1.51
2023-02-11T07:29:42.776Z,-1.50
2023-02-11T07:32:46.762Z,-1.50
2023-02-11T07:35:49.515Z,-1.35
2023-02-11T07:38:52.679Z,-1.19
2023-02-11T07:41:55.496Z,-1.23
2023-02-11T07:44:59.058Z,-1.07
2023-02-11T07:48:01.682Z,-1.02
2023-02-11T07:51:12.465Z,-0.75
2023-02-11T07:54:16.457Z,-0.75
2023-02-11T07:57:18.951Z,-0.54
2023-02-11T08:00:22.407Z,-0.31
2023-02-11T08:03:24.893Z,-0.52
2023-02-11T08:06:31.249Z,-0.63
2023-02-11T08:09:34.655Z,-0.59
2023-02-11T08:12:37.193Z,-0.41
2023-02-11T08:15:39.694Z,-0.45
2023-02-11T08:18:42.637Z,-0.53
2023-02-11T08:21:46.140Z,-0.45
2023-02-11T08:24:51.333Z,-0.28
2023-02-11T08:27:54.750Z,-0.33
2023-02-11T08:30:58.065Z,-0.05
2023-02-11T08:34:02.478Z,0.32
2023-02-11T08:37:09.284Z,0.51
2023-02-11T08:40:11.917Z,0.86
2023-02-11T08:43:14.595Z,1.04
2023-02-11T08:46:19.867Z,1.12
2023-02-11T08:49:22.871Z,1.33
2023-02-11T08:52:25.614Z,1.72
2023-02-11T08:55:28.579Z,1.99
2023-02-11T08:58:31.098Z,2.02
2023-02-11T09:01:33.972Z,2.24
2023-02-11T09:04:36.472Z,2.50
2023-02-11T09:07:39.016Z,2.52
2023-02-11T09:10:41.451Z,2.97
2023-02-11T09:13:45.080Z,3.05
2023-02-11T09:16:48.532Z,2.89
2023-02-11T09:19:51.256Z,3.46
2023-02-11T09:22:55.203Z,3.24
2023-02-11T09:25:57.997Z,3.39
2023-02-11T09:29:01.542Z,3.54
2023-02-11T09:32:04.511Z,3.73
2023-02-11T09:35:07.528Z,3.86
2023-02-11T09:38:10.017Z,3.89
2023-02-11T09:41:46.825Z,4.14
2023-02-11T09:44:49.896Z,3.96
2023-02-11T09:48:00.547Z,3.98
2023-02-11T09:51:04.409Z,4.40
2023-02-11T09:54:23.675Z,4.54
2023-02-11T09:57:34.284Z,4.86
2023-02-11T10:00:44.498Z,4.76
2023-02-11T10:04:24.809Z,4.69
2023-02-11T10:07:42.383Z,4.72
2023-02-11T10:10:56.899Z,4.82
2023-02-11T10:14:21.575Z,5.23
2023-02-11T10:17:33.028Z,6.07
2023-02-11T10:20:46.080Z,6.57
2023-02-11T10:23:54.008Z,6.26
2023-02-11T10:26:56.512Z,6.80
2023-02-11T10:30:16.136Z,6.51
2023-02-11T10:33:43.637Z,6.30
2023-02-11T10:36:46.076Z,6.41
2023-02-11T10:39:49.818Z,7.64
2023-02-11T10:42:55.974Z,8.47
2023-02-11T10:46:00.461Z,7.48
2023-02-11T10:49:04.151Z,6.68
2023-02-11T10:52:24.278Z,5.82
2023-02-11T10:55:28.718Z,6.24
2023-02-11T10:58:37.598Z,6.22
2023-02-11T11:02:04.566Z,6.73
2023-02-11T11:05:19.944Z,6.66
2023-02-11T11:08:22.469Z,6.52
2023-02-11T11:11:26.416Z,6.52
2023-02-11T11:14:29.713Z,8.58
2023-02-11T11:17:32.216Z,12.50
2023-02-11T11:20:36.393Z,15.79
2023-02-11T11:23:39.839Z,18.55
2023-02-11T11:26:45.365Z,15.54
2023-02-11T11:29:55.625Z,12.30
2023-02-11T11:32:59.332Z,10.21
2023-02-11T11:36:07.851Z,9.27
2023-02-11T11:39:33.733Z,8.52
2023-02-11T11:42:38.852Z,7.90
2023-02-11T11:45:59.364Z,8.31
2023-02-11T11:49:13.420Z,8.40
2023-02-11T11:52:26.716Z,8.68
2023-02-11T11:55:36.445Z,8.82
2023-02-11T11:58:38.875Z,8.02
2023-02-11T12:02:02.295Z,7.47
2023-02-11T12:05:24.532Z,7.54
2023-02-11T12:09:12.788Z,8.00
2023-02-11T12:12:33.567Z,8.27
2023-02-11T12:15:56.152Z,8.49
2023-02-11T12:19:20.650Z,9.25
2023-02-11T12:22:37.181Z,8.92
2023-02-11T12:25:48.071Z,8.25
2023-02-11T12:29:02.119Z,8.69
2023-02-11T12:32:08.281Z,9.37
2023-02-11T12:35:28.447Z,9.62
2023-02-11T12:39:22.996Z,10.04
2023-02-11T12:43:03.474Z,10.82
2023-02-11T12:46:48.280Z,12.82
2023-02-11T12:50:04.632Z,13.64
2023-02-11T12:53:19.637Z,16.56
2023-02-11T12:56:31.708Z,16.80
2023-02-11T13:00:11.746Z,14.64
2023-02-11T13:03:47.337Z,15.18
2023-02-11T13:07:02.671Z,15.30
2023-02-11T13:10:15.564Z,12.86
2023-02-11T13:13:23.770Z,11.56
2023-02-11T13:16:33.046Z,10.07
2023-02-11T13:19:47.277Z,10.48
2023-02-11T13:23:17.306Z,9.50
2023-02-11T13:26:26.319Z,9.00
2023-02-11T13:29:49.189Z,8.85
2023-02-11T13:32:54.787Z,8.63
2023-02-11T13:35:57.375Z,8.47
2023-02-11T13:39:03.533Z,8.01
2023-02-11T13:42:06.116Z,7.95
2023-02-11T13:45:37.597Z,8.19
2023-02-11T13:48:47.512Z,7.96
2023-02-11T13:51:51.938Z,8.10
2023-02-11T13:54:59.350Z,8.53
2023-02-11T13:58:07.785Z,8.66
2023-02-11T14:01:10.371Z,10.12
2023-02-11T14:04:47.977Z,11.97
2023-02-11T14:08:28.188Z,13.24
2023-02-11T14:11:45.026Z,14.72
2023-02-11T14:15:04.835Z,14.87
2023-02-11T14:18:37.215Z,15.99
2023-02-11T14:21:43.203Z,14.43
2023-02-11T14:24:49.908Z,12.79
2023-02-11T14:27:56.707Z,11.80
2023-02-11T14:31:07.630Z,11.24
2023-02-11T14:34:29.895Z,10.38
2023-02-11T14:38:21.806Z,10.15
2023-02-11T14:41:27.165Z,9.85
2023-02-11T14:44:32.367Z,9.63
2023-02-11T14:47:53.888Z,9.26
2023-02-11T14:51:18.849Z,10.15
2023-02-11T14:54:26.557Z,11.18
2023-02-11T14:57:29.794Z,12.61
2023-02-11T15:00:32.362Z,11.77
2023-02-11T15:03:38.917Z,11.24
2023-02-11T15:06:45.377Z,9.92
2023-02-11T15:09:54.042Z,8.65
2023-02-11T15:12:57.923Z,8.17
2023-02-11T15:16:11.188Z,8.07
2023-02-11T15:19:41.363Z,7.74
2023-02-11T15:22:46.302Z,7.47
2023-02-11T15:25:55.658Z,7.64
2023-02-11T15:28:59.414Z,7.52
2023-02-11T15:32:07.254Z,7.45
2023-02-11T15:35:11.974Z,7.25
2023-02-11T15:38:14.677Z,7.07
2023-02-11T15:41:49.461Z,6.89
2023-02-11T15:45:14.811Z,6.72
2023-02-11T15:48:26.979Z,6.74
2023-02-11T15:51:36.344Z,6.58
2023-02-11T15:54:47.165Z,6.55
2023-02-11T15:57:55.173Z,6.43
2023-02-11T16:01:00.029Z,6.30
2023-02-11T16:04:06.268Z,6.25
2023-02-11T16:07:38.961Z,6.13
2023-02-11T16:11:08.859Z,6.20
2023-02-11T16:14:32.618Z,6.07
2023-02-11T16:17:35.998Z,5.89
2023-02-11T16:20:39.017Z,5.89
2023-02-11T16:23:44.959Z,5.79
2023-02-11T16:26:53.511Z,5.81
2023-02-11T16:29:58.144Z,5.74
2023-02-11T16:33:02.142Z,5.63
2023-02-11T16:36:17.259Z,5.65
2023-02-11T16:39:24.629Z,5.56
2023-02-11T16:42:27.473Z,5.34
2023-02-11T16:45:30.139Z,5.37
2023-02-11T16:48:33.567Z,5.31
2023-02-11T16:51:39.983Z,5.16
2023-02-11T16:54:42.819Z,5.26
2023-02-11T16:57:45.576Z,5.31
2023-02-11T17:00:48.851Z,5.31
2023-02-11T17:03:51.822Z,5.51
2023-02-11T17:06:56.595Z,5.58
2023-02-11T17:10:01.202Z,5.61
2023-02-11T17:13:05.195Z,5.65
2023-02-11T17:16:16.027Z,5.57
2023-02-11T17:19:23.745Z,5.59
2023-02-11T17:22:26.516Z,5.69
2023-02-11T17:25:29.778Z,5.72
2023-02-11T17:28:32.885Z,5.80
2023-02-11T17:31:37.813Z,5.84
2023-02-11T17:34:40.969Z,5.79
2023-02-11T17:37:43.591Z,5.73
2023-02-11T17:40:46.341Z,5.76
2023-02-11T17:43:48.826Z,5.72
2023-02-11T17:46:51.520Z,5.63
2023-02-11T17:49:54.674Z,5.56
2023-02-11T17:52:57.793Z,5.58
2023-02-11T17:56:06.317Z,5.67
2023-02-11T17:59:11.247Z,5.69
2023-02-11T18:02:14.347Z,5.85
2023-02-11T18:05:17.139Z,5.85
2023-02-11T18:08:19.846Z,5.79
2023-02-11T18:11:24.097Z,5.71
2023-02-11T18:14:26.787Z,5.72
2023-02-11T18:17:29.432Z,5.64
2023-02-11T18:20:33.291Z,5.68
2023-02-11T18:23:36.104Z,5.61
2023-02-11T18:26:39.097Z,5.74
2023-02-11T18:29:41.819Z,5.70
2023-02-11T18:32:44.954Z,5.64
2023-02-11T18:35:49.250Z,5.69
2023-02-11T18:38:53.710Z,5.70
2023-02-11T18:41:58.801Z,5.76
2023-02-11T18:45:01.200Z,5.86
2023-02-11T18:48:05.797Z,5.74
2023-02-11T18:51:10.449Z,5.76
2023-02-11T18:54:13.516Z,5.68
2023-02-11T18:57:16.156Z,5.75
2023-02-11T19:00:20.777Z,5.69
2023-02-11T19:03:23.497Z,5.77
2023-02-11T19:06:28.993Z,5.79
2023-02-11T19:09:31.960Z,5.66
2023-02-11T19:12:35.071Z,5.69
2023-02-11T19:15:46.638Z,5.66
2023-02-11T19:18:50.015Z,5.69
2023-02-11T19:21:52.881Z,5.66
2023-02-11T19:24:55.340Z,5.66
2023-02-11T19:27:58.043Z,5.73
2023-02-11T19:31:10.024Z,5.62
2023-02-11T19:34:19.928Z,5.70
2023-02-11T19:37:22.412Z,5.62
2023-02-11T19:40:25.256Z,5.65
2023-02-11T19:43:28.614Z,5.61
2023-02-11T19:46:34.865Z,5.60
2023-02-11T19:49:37.543Z,5.61
2023-02-11T19:52:40.817Z,5.74
2023-02-11T19:55:43.712Z,5.73
2023-02-11T19:58:46.454Z,5.75
2023-02-11T20:01:49.998Z,5.78
2023-02-11T20:04:53.004Z,5.83
2023-02-11T20:07:55.557Z,5.79
2023-02-11T20:11:05.397Z,5.77
2023-02-11T20:14:08.665Z,5.69
2023-02-11T20:17:11.411Z,5.73
2023-02-11T20:20:14.202Z,5.64
2023-02-11T20:23:16.886Z,5.60
2023-02-11T20:26:22.743Z,5.64
2023-02-11T20:29:25.923Z,5.49
2023-02-11T20:32:31.145Z,5.54
2023-02-11T20:35:35.345Z,5.59
2023-02-11T20:38:38.242Z,5.54
2023-02-11T20:41:41.069Z,5.59
2023-02-11T20:44:45.335Z,5.55
2023-02-11T20:47:47.800Z,5.47
2023-02-11T20:50:50.746Z,5.39
2023-02-11T20:53:54.339Z,5.34
2023-02-11T20:56:58.208Z,5.54
2023-02-11T21:00:00.688Z,5.55
2023-02-11T21:03:04.287Z,5.50
2023-02-11T21:06:08.101Z,5.51
2023-02-11T21:09:17.720Z,5.52
2023-02-11T21:12:20.694Z,5.62
2023-02-11T21:15:24.138Z,5.51
2023-02-11T21:18:27.145Z,5.50
2023-02-11T21:21:30.829Z,5.54
2023-02-11T21:24:33.563Z,5.62
2023-02-11T21:27:36.363Z,5.64
2023-02-11T21:30:40.008Z,5.53
2023-02-11T21:33:42.740Z,5.62
2023-02-11T21:36:45.579Z,5.63
2023-02-11T21:39:48.293Z,5.52
2023-02-11T21:42:51.332Z,5.51
2023-02-11T21:45:54.156Z,5.37
2023-02-11T21:48:57.879Z,5.35
2023-02-11T21:52:00.654Z,5.34
2023-02-11T21:55:03.666Z,5.31
2023-02-11T21:58:07.866Z,5.22
2023-02-11T22:01:15.467Z,5.14
2023-02-11T22:04:18.191Z,5.16
2023-02-11T22:07:22.714Z,5.08
2023-02-11T22:10:25.395Z,5.17
2023-02-11T22:13:28.056Z,5.11
2023-02-11T22:16:31.251Z,5.18
2023-02-11T22:19:34.316Z,5.01
2023-02-11T22:22:37.102Z,4.95
2023-02-11T22:25:39.568Z,5.01
2023-02-11T22:28:42.863Z,4.91
2023-02-11T22:31:45.384Z,4.72
2023-02-11T22:34:47.866Z,4.69
2023-02-11T22:37:50.312Z,4.61
2023-02-11T22:40:52.939Z,4.66
2023-02-11T22:43:55.530Z,4.72
2023-02-11T22:46:58.131Z,4.79
2023-02-11T22:50:00.712Z,4.78
2023-02-11T22:53:03.135Z,4.74
2023-02-11T22:56:10.575Z,4.77
2023-02-11T22:59:15.397Z,4.74
2023-02-11T23:02:17.953Z,4.72
2023-02-11T23:05:20.492Z,4.67
2023-02-11T23:08:22.988Z,4.63
2023-02-11T23:11:28.662Z,4.59
2023-02-11T23:14:31.342Z,4.63
2023-02-11T23:17:33.925Z,4.75
2023-02-11T23:20:42.437Z,4.75
2023-02-11T23:23:45.862Z,4.75
2023-02-11T23:26:49.157Z,4.84
2023-02-11T23:29:51.770Z,4.68
2023-02-11T23:32:54.414Z,4.72
2023-02-11T23:35:57.004Z,4.63
2023-02-11T23:39:00.041Z,4.68
2023-02-11T23:42:02.676Z,4.61
2023-02-11T23:45:05.723Z,4.54
2023-02-11T23:48:08.146Z,4.52
2023-02-11T23:51:10.857Z,4.52
2023-02-11T23:54:15.161Z,4.50
2023-02-11T23:57:17.922Z,4.40
